Time;durP1;ratioP1;P1;durP2;ratioP2;P2;SDS_P1;SDS_P2;PMS_P1;PMS_P2;Temp;Humidity;BMP_temperature;BMP_pressure;BME280_temperature;BME280_humidity;BME280_pressure;Samples;Min_cycle;Max_cycle;Signal;HPM_P1;HPM_P2
2021/12/02 00:00:46;;;;;;;1.98;0.63;;;18.60;82.90;;;;;;4976195;28;20129;-81
2021/12/02 00:03:12;;;;;;;3.25;0.82;;;18.60;82.90;;;;;;4978138;28;20572;-81
2021/12/02 00:05:39;;;;;;;2.15;0.70;;;18.60;82.60;;;;;;4975756;28;20049;-81
2021/12/02 00:08:06;;;;;;;2.38;0.70;;;18.50;82.60;;;;;;4976293;28;20137;-81
2021/12/02 00:10:34;;;;;;;3.22;0.70;;;18.50;82.70;;;;;;4976220;28;20575;-81
2021/12/02 00:13:01;;;;;;;2.90;0.82;;;18.50;82.80;;;;;;4975640;28;20042;-81
2021/12/02 00:15:32;;;;;;;2.25;0.70;;;18.40;82.70;;;;;;4975595;28;20455;-80
2021/12/02 00:18:19;;;;;;;2.17;0.50;;;18.40;82.40;;;;;;4975671;28;20388;-80
2021/12/02 00:23:29;;;;;;;2.67;0.60;;;18.40;82.50;;;;;;4970026;28;20054;-80
2021/12/02 00:25:56;;;;;;;2.03;0.70;;;18.30;82.60;;;;;;4975847;28;20117;-81
2021/12/02 00:28:23;;;;;;;1.08;0.60;;;18.40;82.60;;;;;;4974807;28;20054;-80
2021/12/02 00:30:49;;;;;;;2.50;0.70;;;18.30;82.30;;;;;;4975047;28;20134;-80
2021/12/02 00:33:16;;;;;;;1.48;0.60;;;18.30;82.30;;;;;;4975205;28;20090;-80
2021/12/02 00:35:42;;;;;;;2.10;0.70;;;18.30;82.40;;;;;;4975436;28;20134;-81
2021/12/02 00:38:09;;;;;;;2.13;0.65;;;18.30;82.40;;;;;;4993828;28;20126;-81
2021/12/02 00:40:36;;;;;;;2.60;0.80;;;18.30;82.40;;;;;;4995430;28;20081;-81
2021/12/02 00:43:02;;;;;;;2.10;0.65;;;18.30;82.20;;;;;;4976230;28;20895;-81
2021/12/02 00:45:29;;;;;;;1.35;0.60;;;18.30;82.20;;;;;;4975307;28;20138;-80
2021/12/02 00:47:56;;;;;;;1.33;0.63;;;18.30;82.30;;;;;;4974798;28;20139;-81
2021/12/02 00:50:22;;;;;;;2.55;0.55;;;18.20;82.30;;;;;;4974594;28;20141;-81
2021/12/02 00:52:49;;;;;;;1.90;0.63;;;18.20;82.30;;;;;;4975702;28;20078;-80
2021/12/02 00:55:16;;;;;;;2.25;0.80;;;18.20;82.20;;;;;;4970157;28;20476;-80
2021/12/02 00:57:42;;;;;;;2.15;0.70;;;18.20;82.20;;;;;;4973081;28;20054;-81
2021/12/02 01:00:09;;;;;;;2.42;0.90;;;18.20;82.30;;;;;;4974000;28;20134;-80
2021/12/02 01:02:36;;;;;;;2.65;0.73;;;18.20;82.30;;;;;;4975464;28;20137;-80
2021/12/02 01:05:02;;;;;;;2.15;0.75;;;18.20;82.10;;;;;;4974554;28;20047;-80
2021/12/02 01:07:29;;;;;;;2.20;0.65;;;18.20;82.10;;;;;;4975499;28;20142;-81
2021/12/02 01:09:55;;;;;;;2.67;0.70;;;18.20;82.20;;;;;;4975286;28;20057;-81
2021/12/02 01:12:22;;;;;;;2.47;0.68;;;18.20;82.30;;;;;;4974686;28;20550;-80
2021/12/02 01:14:49;;;;;;;2.00;0.60;;;18.20;82.20;;;;;;4974906;28;20074;-81
2021/12/02 01:17:15;;;;;;;2.33;0.57;;;18.20;82.10;;;;;;4974629;28;20121;-81
2021/12/02 01:19:42;;;;;;;1.60;0.60;;;18.20;82.20;;;;;;4975096;28;20143;-81
2021/12/02 01:22:09;;;;;;;2.95;0.50;;;18.20;82.30;;;;;;4970731;28;20050;-81
2021/12/02 01:24:35;;;;;;;1.90;0.50;;;18.20;82.30;;;;;;4974091;28;20526;-80
2021/12/02 01:27:02;;;;;;;1.45;0.63;;;18.20;82.10;;;;;;4974700;28;20137;-81
2021/12/02 01:29:28;;;;;;;1.27;0.60;;;18.20;82.10;;;;;;4975037;28;20089;-80
2021/12/02 01:31:57;;;;;;;2.20;0.80;;;18.20;82.20;;;;;;4974163;28;20071;-81
2021/12/02 01:34:24;;;;;;;1.55;0.65;;;18.20;82.20;;;;;;4974931;28;20043;-81
2021/12/02 01:36:51;;;;;;;1.77;0.70;;;18.20;82.10;;;;;;4973305;28;20043;-78
2021/12/02 01:39:17;;;;;;;2.15;0.80;;;18.20;82.10;;;;;;4973625;28;20070;-81
2021/12/02 01:41:44;;;;;;;1.52;0.55;;;18.20;82.10;;;;;;4974448;28;20133;-81
2021/12/02 01:44:11;;;;;;;1.90;0.57;;;18.20;82.10;;;;;;4976521;28;20595;-81
2021/12/02 01:46:38;;;;;;;1.55;0.70;;;18.20;82.00;;;;;;4982657;28;20058;-80
2021/12/02 01:49:04;;;;;;;1.88;0.60;;;18.20;82.00;;;;;;4974435;28;20154;-81
2021/12/02 01:51:31;;;;;;;1.70;0.50;;;18.20;82.10;;;;;;4973859;28;20051;-81
2021/12/02 01:53:58;;;;;;;1.45;0.45;;;18.20;82.10;;;;;;4971555;28;20126;-81
2021/12/02 01:56:24;;;;;;;1.60;0.57;;;18.20;82.10;;;;;;4974047;28;20157;-81
2021/12/02 01:58:51;;;;;;;1.45;0.40;;;18.10;82.00;;;;;;4973639;28;20619;-81
2021/12/02 02:01:18;;;;;;;1.77;0.50;;;18.20;82.00;;;;;;4974402;28;20138;-80
2021/12/02 02:03:44;;;;;;;2.38;0.50;;;18.20;82.10;;;;;;4973558;28;20138;-81
2021/12/02 02:06:11;;;;;;;0.93;0.40;;;18.10;82.00;;;;;;4973179;28;20043;-81
2021/12/02 02:08:37;;;;;;;1.33;0.60;;;18.20;82.00;;;;;;4972682;28;20050;-81
2021/12/02 02:11:04;;;;;;;1.75;0.50;;;18.10;82.00;;;;;;4973306;28;20163;-80
2021/12/02 02:13:31;;;;;;;2.53;0.50;;;18.20;82.10;;;;;;4973930;28;20137;-80
2021/12/02 02:15:59;;;;;;;1.20;0.40;;;18.10;81.90;;;;;;4973303;28;20138;-80
2021/12/02 02:18:25;;;;;;;1.15;0.50;;;18.20;82.00;;;;;;4973328;28;20047;-81
2021/12/02 02:20:56;;;;;;;2.13;0.60;;;18.20;82.00;;;;;;4971829;28;20039;-79
2021/12/02 02:23:25;;;;;;;1.85;0.43;;;18.20;82.00;;;;;;4972706;28;20051;-80
2021/12/02 02:25:51;;;;;;;1.52;0.40;;;18.10;82.00;;;;;;4973627;28;20519;-81
2021/12/02 02:28:18;;;;;;;1.77;0.60;;;18.10;81.90;;;;;;4971127;28;20077;-80
2021/12/02 02:30:45;;;;;;;1.58;0.50;;;18.10;81.90;;;;;;4972677;28;20050;-80
2021/12/02 02:33:12;;;;;;;1.77;0.47;;;18.10;82.00;;;;;;4973213;28;20054;-80
2021/12/02 02:35:38;;;;;;;1.70;0.65;;;18.10;81.90;;;;;;4980056;28;20053;-79
2021/12/02 02:38:05;;;;;;;1.48;0.50;;;18.10;81.90;;;;;;4974907;28;20125;-80
2021/12/02 02:40:32;;;;;;;2.20;0.52;;;18.10;81.90;;;;;;4973509;28;20086;-78
2021/12/02 02:43:05;;;;;;;1.30;0.40;;;18.10;81.90;;;;;;4972395;28;20101;-81
2021/12/02 02:45:32;;;;;;;2.35;0.68;;;18.10;81.80;;;;;;4973664;28;20393;-81
2021/12/02 02:47:58;;;;;;;1.83;0.47;;;18.10;81.80;;;;;;4972899;28;20133;-80
2021/12/02 02:50:25;;;;;;;1.63;0.50;;;18.10;81.80;;;;;;4971882;28;20061;-80
2021/12/02 02:52:52;;;;;;;1.77;0.45;;;18.10;81.80;;;;;;4974313;28;20046;-81
2021/12/02 02:55:23;;;;;;;1.58;0.68;;;18.10;81.70;;;;;;4973316;28;20082;-80
2021/12/02 02:57:58;;;;;;;1.25;0.50;;;18.10;81.70;;;;;;4972633;28;20047;-81
2021/12/02 03:00:31;;;;;;;1.15;0.40;;;18.10;81.80;;;;;;4971956;28;20125;-80
2021/12/02 03:03:02;;;;;;;1.37;0.47;;;18.10;81.70;;;;;;4973214;28;20054;-81
2021/12/02 03:05:35;;;;;;;1.50;0.50;;;18.10;81.70;;;;;;4972626;28;20047;-81
2021/12/02 03:08:11;;;;;;;1.63;0.38;;;18.10;81.70;;;;;;4970281;28;20495;-81
2021/12/02 03:10:43;;;;;;;1.85;0.57;;;18.10;81.70;;;;;;4973685;28;20098;-80
2021/12/02 03:13:16;;;;;;;1.90;0.50;;;18.10;81.70;;;;;;4972195;28;20616;-80
2021/12/02 03:18:32;;;;;;;0.60;0.22;;;18.10;81.70;;;;;;4917558;28;20181;-80
2021/12/02 03:20:58;;;;;;;1.00;0.40;;;18.10;82.30;;;;;;4972941;28;20134;-79
2021/12/02 03:23:25;;;;;;;1.25;0.40;;;18.10;81.60;;;;;;4973106;28;20089;-79
2021/12/02 03:25:51;;;;;;;0.70;0.32;;;18.10;81.60;;;;;;4972541;28;20131;-80
2021/12/02 03:28:18;;;;;;;1.33;0.30;;;18.10;81.70;;;;;;4980317;28;20053;-80
2021/12/02 03:30:44;;;;;;;1.67;0.30;;;18.10;81.70;;;;;;4972861;28;20061;-80
2021/12/02 03:33:11;;;;;;;1.65;0.35;;;18.10;81.60;;;;;;4969918;28;20053;-80
2021/12/02 03:35:37;;;;;;;0.50;0.20;;;18.10;82.20;;;;;;4953886;28;20130;-80
2021/12/02 03:38:04;;;;;;;1.15;0.30;;;18.10;81.60;;;;;;4956688;28;20404;-80
2021/12/02 03:40:30;;;;;;;1.05;0.38;;;18.10;81.60;;;;;;4972941;28;20047;-80
2021/12/02 03:42:57;;;;;;;1.30;0.40;;;18.10;81.60;;;;;;4971468;28;20122;-79
2021/12/02 03:45:23;;;;;;;0.65;0.20;;;18.10;81.60;;;;;;4973941;28;20051;-80
2021/12/02 03:47:50;;;;;;;1.27;0.40;;;18.10;81.60;;;;;;4970265;28;20469;-80
2021/12/02 03:50:16;;;;;;;0.82;0.43;;;18.10;81.60;;;;;;4972460;28;20090;-81
2021/12/02 03:52:42;;;;;;;1.52;0.50;;;18.10;81.60;;;;;;4960539;28;20046;-80
2021/12/02 03:55:09;;;;;;;1.00;0.32;;;18.10;81.60;;;;;;4972190;28;20047;-80
2021/12/02 03:57:35;;;;;;;1.00;0.30;;;18.10;81.60;;;;;;4953714;28;20051;-80
2021/12/02 04:00:02;;;;;;;0.82;0.30;;;18.10;81.60;;;;;;4972947;28;20138;-80
2021/12/02 04:02:28;;;;;;;1.15;0.50;;;18.10;81.60;;;;;;4956315;28;20555;-80
2021/12/02 04:04:55;;;;;;;0.77;0.30;;;18.10;81.60;;;;;;4957492;28;20509;-80
2021/12/02 04:07:25;;;;;;;0.77;0.30;;;18.10;81.60;;;;;;4974964;28;20519;-81
2021/12/02 04:09:52;;;;;;;1.17;0.30;;;18.10;81.60;;;;;;4975863;28;20094;-80
2021/12/02 04:12:23;;;;;;;0.88;0.40;;;18.10;81.50;;;;;;4976103;28;20062;-81
2021/12/02 04:14:54;;;;;;;0.70;0.25;;;18.10;81.60;;;;;;4976085;28;20047;-81
2021/12/02 04:17:29;;;;;;;1.00;0.38;;;18.10;81.60;;;;;;4973912;28;20043;-81
2021/12/02 04:19:55;;;;;;;1.08;0.38;;;18.10;81.50;;;;;;4973618;28;20137;-81
2021/12/02 04:22:22;;;;;;;1.05;0.40;;;18.10;81.50;;;;;;4975786;28;20086;-80
2021/12/02 04:24:48;;;;;;;0.73;0.30;;;18.10;81.60;;;;;;4974433;28;20047;-81
2021/12/02 04:27:15;;;;;;;1.75;0.20;;;18.10;81.60;;;;;;4975295;28;20050;-81
2021/12/02 04:29:41;;;;;;;0.52;0.20;;;18.10;81.60;;;;;;4975495;28;20055;-80
2021/12/02 04:32:08;;;;;;;0.80;0.30;;;18.10;81.60;;;;;;4973956;28;20051;-80
2021/12/02 04:34:34;;;;;;;1.58;0.30;;;18.10;81.60;;;;;;4977925;28;20093;-81
2021/12/02 04:37:00;;;;;;;0.70;0.25;;;18.10;81.60;;;;;;4984363;28;20051;-81
2021/12/02 04:39:27;;;;;;;1.25;0.20;;;18.10;81.50;;;;;;4975025;28;20047;-81
2021/12/02 04:41:53;;;;;;;0.40;0.20;;;18.10;81.50;;;;;;4973825;28;20050;-81
2021/12/02 04:44:20;;;;;;;0.47;0.15;;;18.10;81.60;;;;;;4975655;28;20503;-81
2021/12/02 04:46:47;;;;;;;1.88;0.20;;;18.10;81.60;;;;;;4972467;28;20134;-81
2021/12/02 04:49:13;;;;;;;0.50;0.15;;;18.10;81.60;;;;;;4974457;28;20093;-81
2021/12/02 04:51:40;;;;;;;0.80;0.30;;;18.10;81.50;;;;;;4970439;28;20567;-81
2021/12/02 04:54:06;;;;;;;0.30;0.03;;;18.10;81.60;;;;;;4974609;28;20062;-82
2021/12/02 04:56:32;;;;;;;0.50;0.30;;;18.10;81.60;;;;;;4975258;28;20113;-81
2021/12/02 04:58:59;;;;;;;0.88;0.13;;;18.10;81.50;;;;;;4975446;28;20495;-82
2021/12/02 05:01:25;;;;;;;0.70;0.20;;;18.10;81.50;;;;;;4974419;28;20403;-81
2021/12/02 05:03:52;;;;;;;0.80;0.30;;;18.10;81.50;;;;;;4973671;28;20134;-81
2021/12/02 05:06:18;;;;;;;0.95;0.13;;;18.10;81.50;;;;;;4975364;28;20047;-81
2021/12/02 05:08:45;;;;;;;1.17;0.35;;;18.10;81.50;;;;;;4975763;28;20126;-81
2021/12/02 05:11:11;;;;;;;0.52;0.20;;;18.10;81.50;;;;;;4975076;28;20047;-81
2021/12/02 05:13:38;;;;;;;2.15;0.38;;;18.10;81.50;;;;;;4973837;28;20057;-81
2021/12/02 05:16:04;;;;;;;1.38;0.20;;;18.10;81.50;;;;;;4975104;28;20514;-81
2021/12/02 05:18:31;;;;;;;0.80;0.13;;;18.10;81.50;;;;;;4966404;28;20142;-80
2021/12/02 05:20:59;;;;;;;0.32;0.10;;;18.10;81.50;;;;;;4972545;28;20042;-81
2021/12/02 05:23:25;;;;;;;0.57;0.20;;;18.00;81.40;;;;;;4974415;28;20054;-81
2021/12/02 05:25:52;;;;;;;0.35;0.03;;;18.10;81.40;;;;;;4973145;28;20142;-81
2021/12/02 05:28:18;;;;;;;0.60;0.13;;;18.10;81.40;;;;;;4971159;28;20487;-80
2021/12/02 05:30:45;;;;;;;0.60;0.28;;;18.00;81.40;;;;;;4969691;28;20412;-80
2021/12/02 05:33:11;;;;;;;0.90;0.28;;;18.00;81.40;;;;;;4970318;28;20049;-80
2021/12/02 05:35:38;;;;;;;0.20;0.13;;;18.00;81.40;;;;;;4965352;28;20062;-81
2021/12/02 05:38:04;;;;;;;0.40;0.15;;;18.00;81.30;;;;;;4967857;28;20047;-81
2021/12/02 05:40:31;;;;;;;0.47;0.10;;;18.00;81.30;;;;;;4969106;28;20559;-80
2021/12/02 05:42:57;;;;;;;0.45;0.10;;;18.10;81.40;;;;;;4972440;28;20419;-80
2021/12/02 05:45:23;;;;;;;2.72;0.20;;;18.10;81.40;;;;;;4974057;28;20045;-81
2021/12/02 05:47:50;;;;;;;0.50;0.10;;;18.00;81.40;;;;;;4959411;28;20072;-80
2021/12/02 05:50:16;;;;;;;0.45;0.10;;;18.00;81.40;;;;;;4967148;28;20043;-80
2021/12/02 05:52:43;;;;;;;0.60;0.20;;;18.00;81.30;;;;;;4972204;28;20149;-80
2021/12/02 05:55:09;;;;;;;0.50;0.10;;;18.00;81.30;;;;;;4969220;28;20054;-80
2021/12/02 05:57:36;;;;;;;0.73;0.10;;;18.00;81.30;;;;;;4955076;28;20496;-80
2021/12/02 06:00:02;;;;;;;0.10;0.05;;;18.00;81.30;;;;;;4971806;28;20074;-80
2021/12/02 06:02:29;;;;;;;0.52;0.10;;;18.00;81.30;;;;;;4973917;28;20050;-80
2021/12/02 06:04:55;;;;;;;0.63;0.30;;;18.00;81.30;;;;;;4973966;28;20460;-79
2021/12/02 06:07:22;;;;;;;0.68;0.20;;;18.00;81.30;;;;;;4973822;28;20122;-79
2021/12/02 06:09:52;;;;;;;0.88;0.20;;;18.00;81.30;;;;;;4970767;28;20047;-78
2021/12/02 06:12:19;;;;;;;0.45;0.10;;;18.00;81.30;;;;;;4971276;28;20046;-80
2021/12/02 06:14:45;;;;;;;0.50;0.10;;;18.00;81.30;;;;;;4974084;28;20049;-81
2021/12/02 06:17:12;;;;;;;0.47;0.10;;;18.10;81.30;;;;;;4983496;28;20133;-81
2021/12/02 06:19:38;;;;;;;0.47;0.10;;;18.00;81.30;;;;;;4973360;28;20530;-82
2021/12/02 06:22:05;;;;;;;0.28;0.10;;;18.00;81.30;;;;;;4972764;28;20411;-81
2021/12/02 06:24:41;;;;;;;0.60;0.10;;;18.00;81.30;;;;;;4973521;28;20054;-81
2021/12/02 06:27:08;;;;;;;1.10;0.20;;;18.00;81.30;;;;;;4973555;28;20047;-81
2021/12/02 06:29:34;;;;;;;0.20;0.08;;;18.00;81.30;;;;;;4973419;28;20057;-81
2021/12/02 06:32:03;;;;;;;0.75;0.10;;;18.00;81.30;;;;;;4970092;28;20061;-81
2021/12/02 06:34:30;;;;;;;0.38;0.13;;;18.00;81.30;;;;;;4966647;28;20492;-81
2021/12/02 06:36:56;;;;;;;0.35;0.10;;;18.00;81.20;;;;;;4963302;28;20138;-81
2021/12/02 06:39:23;;;;;;;0.38;0.10;;;18.00;81.20;;;;;;4966192;28;20045;-81
2021/12/02 06:41:49;;;;;;;0.47;0.10;;;18.00;81.20;;;;;;4968818;28;20065;-81
2021/12/02 06:44:16;;;;;;;0.40;0.10;;;18.00;81.20;;;;;;4966849;28;20119;-81
2021/12/02 06:46:42;;;;;;;0.38;0.10;;;18.00;81.10;;;;;;4961086;28;20158;-80
2021/12/02 06:49:09;;;;;;;0.32;0.10;;;18.00;81.10;;;;;;4964159;28;20114;-80
2021/12/02 06:51:35;;;;;;;0.50;0.20;;;18.00;81.20;;;;;;4971252;28;20137;-79
2021/12/02 06:54:04;;;;;;;0.38;0.10;;;18.00;81.20;;;;;;4963484;28;20134;-80
2021/12/02 06:56:30;;;;;;;0.55;0.10;;;18.00;81.20;;;;;;4967325;28;20054;-79
2021/12/02 06:58:57;;;;;;;1.27;0.10;;;18.00;81.10;;;;;;4966645;28;20520;-80
2021/12/02 07:01:23;;;;;;;0.30;0.10;;;18.00;81.20;;;;;;4972850;28;20507;-81
2021/12/02 07:03:50;;;;;;;1.65;0.20;;;18.00;81.10;;;;;;4968612;28;20051;-79
2021/12/02 07:06:16;;;;;;;0.93;0.20;;;18.00;81.10;;;;;;4972133;28;20047;-80
2021/12/02 07:08:43;;;;;;;0.70;0.20;;;18.00;81.10;;;;;;4973529;28;20101;-80
2021/12/02 07:11:10;;;;;;;0.85;0.25;;;18.00;81.10;;;;;;4966109;28;20133;-79
2021/12/02 07:13:38;;;;;;;1.42;0.25;;;18.00;81.10;;;;;;4972708;28;20051;-80
2021/12/02 07:16:04;;;;;;;1.52;0.28;;;18.00;81.30;;;;;;4972890;28;20057;-80
2021/12/02 07:18:35;;;;;;;1.88;0.35;;;18.00;81.40;;;;;;4971838;28;21747;-79
2021/12/02 07:21:02;;;;;;;3.80;0.50;;;18.10;81.60;;;;;;4971168;28;20051;-80
2021/12/02 07:23:28;;;;;;;4.32;0.60;;;18.10;81.70;;;;;;4965090;28;20061;-82
2021/12/02 07:25:55;;;;;;;1.73;0.35;;;18.10;81.80;;;;;;4972102;28;20049;-81
2021/12/02 07:28:21;;;;;;;2.20;0.50;;;18.10;81.80;;;;;;4973548;28;20046;-80
2021/12/02 07:30:48;;;;;;;2.67;0.52;;;18.10;81.90;;;;;;4972806;28;20046;-81
2021/12/02 07:33:14;;;;;;;2.38;0.57;;;18.10;82.00;;;;;;4971567;28;20435;-81
2021/12/02 07:35:41;;;;;;;3.30;0.50;;;18.10;82.10;;;;;;4971668;28;20073;-81
2021/12/02 07:38:07;;;;;;;2.53;0.60;;;18.10;82.20;;;;;;4976270;28;20125;-81
2021/12/02 07:40:34;;;;;;;1.17;0.38;;;18.00;82.10;;;;;;4977029;28;20133;-80
2021/12/02 07:43:01;;;;;;;2.05;0.47;;;18.00;82.20;;;;;;4976829;28;20043;-80
2021/12/02 07:45:31;;;;;;;1.25;0.30;;;18.00;82.30;;;;;;4977140;28;20053;-81
2021/12/02 07:47:57;;;;;;;2.63;0.55;;;18.00;82.30;;;;;;4977050;28;20105;-82
2021/12/02 07:50:23;;;;;;;3.35;0.60;;;18.00;82.30;;;;;;4976691;28;20057;-82
2021/12/02 07:52:50;;;;;;;2.25;0.60;;;18.00;82.30;;;;;;4976924;28;20129;-82
2021/12/02 07:55:16;;;;;;;0.77;0.45;;;18.10;82.40;;;;;;4976532;28;20089;-82
2021/12/02 07:57:43;;;;;;;1.58;0.50;;;18.00;82.30;;;;;;4976592;28;20050;-81
2021/12/02 08:00:10;;;;;;;2.30;0.70;;;18.00;82.30;;;;;;4976618;28;20077;-80
2021/12/02 08:02:36;;;;;;;1.77;0.38;;;18.00;82.30;;;;;;4976541;28;20054;-81
2021/12/02 08:05:03;;;;;;;2.05;0.45;;;18.00;82.30;;;;;;4976496;28;20078;-81
2021/12/02 08:07:29;;;;;;;1.30;0.40;;;18.00;82.30;;;;;;4976406;28;20150;-82
2021/12/02 08:09:56;;;;;;;1.02;0.40;;;18.00;82.30;;;;;;4976783;28;20055;-82
2021/12/02 08:12:23;;;;;;;0.68;0.28;;;18.00;82.30;;;;;;4976438;28;20125;-82
2021/12/02 08:14:50;;;;;;;1.10;0.30;;;18.00;82.30;;;;;;4976628;28;20082;-82
2021/12/02 08:17:17;;;;;;;2.35;0.50;;;18.00;82.20;;;;;;4976414;28;20047;-81
2021/12/02 08:19:44;;;;;;;1.73;0.65;;;18.00;82.20;;;;;;4974353;28;20504;-81
2021/12/02 08:22:10;;;;;;;1.30;0.40;;;18.00;82.20;;;;;;4976300;28;20109;-81
2021/12/02 08:24:37;;;;;;;1.20;0.20;;;18.00;82.20;;;;;;4975827;28;20094;-81
2021/12/02 08:27:03;;;;;;;0.57;0.30;;;18.00;82.10;;;;;;4976176;28;20457;-81
2021/12/02 08:29:32;;;;;;;2.65;0.40;;;18.00;82.10;;;;;;4976178;28;20081;-81
2021/12/02 08:31:59;;;;;;;1.15;0.30;;;18.10;82.20;;;;;;4975820;28;20396;-80
2021/12/02 08:34:26;;;;;;;0.68;0.25;;;18.10;82.10;;;;;;4976001;28;20046;-81
2021/12/02 08:36:54;;;;;;;1.38;0.30;;;18.10;81.90;;;;;;4975798;28;20054;-81
2021/12/02 08:39:24;;;;;;;0.63;0.30;;;18.20;81.70;;;;;;4975876;28;20562;-81
2021/12/02 08:41:53;;;;;;;0.80;0.40;;;18.40;81.60;;;;;;4976107;28;20082;-81
2021/12/02 08:44:19;;;;;;;1.15;0.20;;;18.50;81.40;;;;;;4976008;28;20047;-81
2021/12/02 08:46:47;;;;;;;1.55;0.38;;;18.60;81.20;;;;;;4975847;28;20050;-80
2021/12/02 08:49:13;;;;;;;0.93;0.30;;;18.70;81.00;;;;;;4974582;28;20046;-80
2021/12/02 08:51:41;;;;;;;0.90;0.30;;;18.80;80.90;;;;;;4975646;28;20061;-82
2021/12/02 08:54:07;;;;;;;0.63;0.22;;;18.80;80.60;;;;;;4975713;28;20459;-82
2021/12/02 08:56:34;;;;;;;0.88;0.40;;;18.90;80.40;;;;;;4975784;28;20126;-81
2021/12/02 08:59:00;;;;;;;0.80;0.28;;;19.00;80.30;;;;;;4975839;28;20053;-81
2021/12/02 09:01:28;;;;;;;2.25;0.30;;;19.10;80.30;;;;;;4972866;28;20174;-80
2021/12/02 09:03:54;;;;;;;1.67;0.50;;;19.10;80.10;;;;;;4956315;28;20047;-81
2021/12/02 09:06:22;;;;;;;1.95;0.40;;;19.20;80.10;;;;;;4956046;28;20090;-81
2021/12/02 09:08:48;;;;;;;0.80;0.40;;;19.20;80.00;;;;;;4956633;28;20047;-81
2021/12/02 09:11:15;;;;;;;1.27;0.50;;;19.20;80.00;;;;;;4956271;28;20066;-82
2021/12/02 09:13:41;;;;;;;1.40;0.20;;;19.20;80.00;;;;;;4969026;28;20117;-82
2021/12/02 09:16:08;;;;;;;0.80;0.40;;;19.10;79.90;;;;;;4976459;28;20209;-81
2021/12/02 09:18:34;;;;;;;0.73;0.20;;;19.10;80.00;;;;;;4975434;28;20137;-81
2021/12/02 09:21:01;;;;;;;1.38;0.50;;;19.10;80.10;;;;;;4975183;28;20591;-82
2021/12/02 09:23:27;;;;;;;0.47;0.22;;;19.10;80.10;;;;;;4975261;28;20077;-80
2021/12/02 09:25:54;;;;;;;0.70;0.20;;;19.00;80.00;;;;;;4975182;28;20130;-80
2021/12/02 09:28:20;;;;;;;0.90;0.20;;;19.00;80.10;;;;;;4974906;28;20049;-81
2021/12/02 09:30:47;;;;;;;2.08;0.38;;;18.90;80.20;;;;;;4974621;28;20122;-81
2021/12/02 09:33:13;;;;;;;0.60;0.30;;;18.90;80.40;;;;;;4974870;28;20043;-81
2021/12/02 09:35:40;;;;;;;1.23;0.40;;;18.80;80.30;;;;;;4974926;28;20512;-81
2021/12/02 09:38:08;;;;;;;0.82;0.17;;;18.80;80.30;;;;;;4974772;28;20423;-81
2021/12/02 09:40:34;;;;;;;0.75;0.30;;;18.80;80.40;;;;;;4975034;28;20058;-81
2021/12/02 09:43:01;;;;;;;0.77;0.20;;;18.70;80.40;;;;;;4974575;28;20508;-81
2021/12/02 09:45:27;;;;;;;0.57;0.32;;;18.70;80.50;;;;;;4974624;28;20051;-83
2021/12/02 09:47:54;;;;;;;0.68;0.35;;;18.70;80.50;;;;;;4974725;28;20047;-82
2021/12/02 09:50:23;;;;;;;0.82;0.38;;;18.60;80.50;;;;;;4974419;28;20389;-81
2021/12/02 09:52:49;;;;;;;0.60;0.30;;;18.60;80.70;;;;;;4966318;28;20579;-82
2021/12/02 09:55:21;;;;;;;1.10;0.30;;;18.50;80.60;;;;;;4955318;28;20047;-80
2021/12/02 09:57:50;;;;;;;0.57;0.20;;;18.50;80.70;;;;;;4955299;28;20417;-80
2021/12/02 10:00:19;;;;;;;0.20;0.13;;;18.50;80.80;;;;;;4954663;28;20126;-81
2021/12/02 10:02:52;;;;;;;0.88;0.30;;;18.50;80.80;;;;;;4955321;28;20051;-81
2021/12/02 10:05:24;;;;;;;1.02;0.32;;;18.40;80.80;;;;;;4955278;28;20122;-80
2021/12/02 10:07:50;;;;;;;0.63;0.30;;;18.40;80.90;;;;;;4962310;28;20050;-80
2021/12/02 10:10:26;;;;;;;0.30;0.13;;;18.40;81.00;;;;;;4974162;28;20093;-81
2021/12/02 10:12:53;;;;;;;0.80;0.40;;;18.40;81.00;;;;;;4974336;28;20043;-81
2021/12/02 10:15:21;;;;;;;0.47;0.20;;;18.30;81.00;;;;;;4974083;28;20049;-81
2021/12/02 10:17:50;;;;;;;0.93;0.30;;;18.30;81.00;;;;;;4974024;28;20043;-81
2021/12/02 10:20:25;;;;;;;0.75;0.30;;;18.30;81.00;;;;;;4974303;28;20094;-81
2021/12/02 10:22:51;;;;;;;0.40;0.17;;;18.30;81.10;;;;;;4973804;28;20074;-81
2021/12/02 10:25:18;;;;;;;0.88;0.35;;;18.30;81.10;;;;;;4973838;28;20504;-80
2021/12/02 10:27:44;;;;;;;1.00;0.30;;;18.30;81.10;;;;;;4973781;28;20134;-81
2021/12/02 10:30:11;;;;;;;0.70;0.28;;;18.30;81.10;;;;;;4973775;28;20050;-81
2021/12/02 10:32:37;;;;;;;0.80;0.30;;;18.30;81.10;;;;;;4973658;28;20055;-81
2021/12/02 10:35:05;;;;;;;0.63;0.30;;;18.30;81.10;;;;;;4973857;28;20082;-80
2021/12/02 10:37:32;;;;;;;0.68;0.32;;;18.30;81.10;;;;;;4973677;28;20484;-80
2021/12/02 10:39:58;;;;;;;0.80;0.38;;;18.30;81.10;;;;;;4973630;28;20081;-81
2021/12/02 10:42:25;;;;;;;0.50;0.20;;;18.30;81.20;;;;;;4973532;28;20089;-81
2021/12/02 10:44:51;;;;;;;0.40;0.20;;;18.30;81.10;;;;;;4973671;28;20591;-82
2021/12/02 10:47:19;;;;;;;0.77;0.28;;;18.20;81.10;;;;;;4973871;28;20102;-81
2021/12/02 10:49:46;;;;;;;0.43;0.13;;;18.20;81.10;;;;;;4973757;28;20471;-82
2021/12/02 10:52:14;;;;;;;0.25;0.20;;;18.20;81.10;;;;;;4964020;28;20053;-82
2021/12/02 10:54:41;;;;;;;0.70;0.30;;;18.20;81.10;;;;;;4954259;28;20079;-82
2021/12/02 10:57:08;;;;;;;0.82;0.38;;;18.20;81.10;;;;;;4954409;28;20051;-82
2021/12/02 10:59:34;;;;;;;0.50;0.20;;;18.30;81.20;;;;;;4954060;28;20048;-82
2021/12/02 11:02:01;;;;;;;0.47;0.25;;;18.30;81.20;;;;;;4967125;28;20051;-82
2021/12/02 11:04:27;;;;;;;0.70;0.40;;;18.30;81.20;;;;;;4973289;28;20046;-82
2021/12/02 11:07:00;;;;;;;0.50;0.20;;;18.30;81.20;;;;;;4973456;28;20094;-81
2021/12/02 11:09:27;;;;;;;;;;;18.30;81.20;;;;;;4974020;28;20050;-81
2021/12/02 11:11:53;;;;;;;0.60;0.20;;;18.30;81.30;;;;;;4972712;28;19929;-81
2021/12/02 11:14:20;;;;;;;0.52;0.20;;;18.30;81.30;;;;;;4973586;28;20129;-82
2021/12/02 11:16:46;;;;;;;0.88;0.20;;;18.20;81.20;;;;;;4973471;28;20138;-81
2021/12/02 11:19:13;;;;;;;0.20;0.10;;;18.20;81.20;;;;;;4973230;28;20514;-82
2021/12/02 11:21:39;;;;;;;0.45;0.10;;;18.20;81.20;;;;;;4973280;28;20412;-81
2021/12/02 11:24:08;;;;;;;0.38;0.10;;;18.20;81.30;;;;;;4973325;28;20050;-81
2021/12/02 11:26:34;;;;;;;0.45;0.20;;;18.20;81.30;;;;;;4973611;28;20046;-81
2021/12/02 11:29:01;;;;;;;1.05;0.40;;;18.20;81.30;;;;;;4972619;28;20130;-80
2021/12/02 11:31:27;;;;;;;0.50;0.30;;;18.20;81.30;;;;;;4972291;28;20050;-81
2021/12/02 11:33:53;;;;;;;1.13;0.30;;;18.20;81.30;;;;;;4963924;28;20496;-81
2021/12/02 11:36:21;;;;;;;1.55;0.30;;;18.30;81.30;;;;;;4971774;28;20129;-81
2021/12/02 11:38:47;;;;;;;1.48;0.30;;;18.40;81.20;;;;;;4969320;28;20050;-82
2021/12/02 11:41:14;;;;;;;0.98;0.20;;;18.50;81.00;;;;;;4964815;28;20043;-82
2021/12/02 11:43:40;;;;;;;2.55;0.30;;;18.70;80.90;;;;;;4960777;28;20047;-82
2021/12/02 11:46:07;;;;;;;1.65;0.20;;;18.90;80.60;;;;;;4971341;28;20043;-82
2021/12/02 11:48:33;;;;;;;2.22;0.20;;;19.10;80.40;;;;;;4962781;28;20050;-82
2021/12/02 11:51:00;;;;;;;0.52;0.20;;;19.20;80.20;;;;;;4968512;28;20046;-82
2021/12/02 11:53:26;;;;;;;2.95;0.28;;;19.40;80.00;;;;;;4971395;28;20134;-79
2021/12/02 11:55:53;;;;;;;0.70;0.25;;;19.50;79.90;;;;;;4973031;28;20448;-81
2021/12/02 11:58:19;;;;;;;0.80;0.10;;;19.50;79.70;;;;;;4971774;28;20065;-80
2021/12/02 12:00:46;;;;;;;0.43;0.10;;;19.60;79.70;;;;;;4971439;28;20040;-81
2021/12/02 12:03:12;;;;;;;0.63;0.20;;;19.70;79.60;;;;;;4971092;28;20142;-81
2021/12/02 12:05:39;;;;;;;0.63;0.10;;;19.70;79.50;;;;;;4959828;28;20493;-82
2021/12/02 12:08:05;;;;;;;0.22;0.10;;;19.80;79.50;;;;;;4960480;28;20419;-82
2021/12/02 12:10:31;;;;;;;1.20;0.20;;;19.80;79.40;;;;;;4967790;28;20054;-82
2021/12/02 12:12:58;;;;;;;0.40;0.10;;;19.80;79.30;;;;;;4972826;28;20078;-81
2021/12/02 12:15:24;;;;;;;0.57;0.15;;;19.80;79.30;;;;;;4966230;28;20484;-82
2021/12/02 12:17:51;;;;;;;1.65;0.30;;;19.90;79.30;;;;;;4969044;28;20134;-81
2021/12/02 12:20:19;;;;;;;0.75;0.20;;;19.90;79.30;;;;;;4963108;28;20050;-81
2021/12/02 12:22:45;;;;;;;0.63;0.22;;;19.90;79.30;;;;;;4963166;28;20147;-82
2021/12/02 12:25:12;;;;;;;1.27;0.10;;;19.90;79.30;;;;;;4969501;28;20054;-82
2021/12/02 12:27:38;;;;;;;0.52;0.13;;;19.90;79.30;;;;;;4975040;28;20430;-81
2021/12/02 12:30:06;;;;;;;0.60;0.20;;;19.90;79.30;;;;;;4975858;28;20126;-81
2021/12/02 12:33:00;;;;;;;0.68;0.20;;;19.90;79.40;;;;;;4975884;28;20058;-82
2021/12/02 12:35:32;;;;;;;2.92;0.43;;;19.80;79.60;;;;;;4976259;28;20418;-82
2021/12/02 12:38:02;;;;;;;0.20;0.10;;;19.70;79.80;;;;;;4976159;28;20051;-83
2021/12/02 12:40:29;;;;;;;0.90;0.20;;;19.60;80.00;;;;;;4975960;28;20074;-82
2021/12/02 12:42:55;;;;;;;1.35;0.20;;;19.40;80.10;;;;;;4975584;28;20142;-80
2021/12/02 12:45:21;;;;;;;0.30;0.20;;;19.40;80.40;;;;;;4975838;28;20049;-82
2021/12/02 12:47:48;;;;;;;0.60;0.20;;;19.20;80.50;;;;;;4975788;28;20053;-82
2021/12/02 12:50:14;;;;;;;0.38;0.10;;;19.10;80.60;;;;;;4975799;28;20427;-82
2021/12/02 12:52:41;;;;;;;0.52;0.20;;;19.00;80.70;;;;;;4975752;28;20051;-82